Time;durP1;ratioP1;P1;durP2;ratioP2;P2;SDS_P1;SDS_P2;PMS_P1;PMS_P2;Temp;Humidity;BMP_temperature;BMP_pressure;BME280_temperature;BME280_humidity;BME280_pressure;Samples;Min_cycle;Max_cycle;Signal;HPM_P1;HPM_P2
2022/12/25 00:00:17;;;;;;;18.10;9.90;;;;;;;;;;10408942;28;20029;-64
2022/12/25 00:05:17;;;;;;;15.33;10.40;;;;;;;;;;10409153;28;20463;-61
2022/12/25 00:10:18;;;;;;;15.60;10.25;;;;;;;;;;10408198;28;20842;-64
2022/12/25 00:15:18;;;;;;;13.60;9.60;;;;;;;;;;10404074;28;20353;-67
2022/12/25 00:20:18;;;;;;;15.03;9.90;;;;;;;;;;10408775;28;20030;-67
2022/12/25 00:25:18;;;;;;;14.20;9.90;;;;;;;;;;10406336;28;20389;-66
2022/12/25 00:30:19;;;;;;;12.63;9.02;;;;;;;;;;10397047;28;20056;-66
2022/12/25 00:35:19;;;;;;;12.20;9.27;;;;;;;;;;10402911;28;20033;-67
2022/12/25 00:40:19;;;;;;;12.40;9.15;;;;;;;;;;10400897;28;20030;-68
2022/12/25 00:45:20;;;;;;;13.07;9.23;;;;;;;;;;10406774;28;20400;-65
2022/12/25 00:50:20;;;;;;;13.20;8.93;;;;;;;;;;10408274;28;20469;-68
2022/12/25 00:55:20;;;;;;;13.37;9.23;;;;;;;;;;10405949;28;20103;-67
2022/12/25 01:00:20;;;;;;;14.20;9.57;;;;;;;;;;10399578;28;20109;-66
2022/12/25 01:05:21;;;;;;;14.15;9.95;;;;;;;;;;10404857;28;20017;-64
2022/12/25 01:10:21;;;;;;;18.30;8.52;;;;;;;;;;10405627;28;20472;-66
2022/12/25 01:15:21;;;;;;;17.63;9.40;;;;;;;;;;10398696;28;20041;-68
2022/12/25 01:20:22;;;;;;;21.67;10.18;;;;;;;;;;10399053;28;20164;-67
2022/12/25 01:25:22;;;;;;;13.23;8.77;;;;;;;;;;10395493;28;20558;-69
2022/12/25 01:30:22;;;;;;;17.25;9.00;;;;;;;;;;10390417;28;20113;-68
2022/12/25 01:35:27;;;;;;;26.27;9.43;;;;;;;;;;10393135;28;20099;-66
2022/12/25 01:40:27;;;;;;;14.63;8.77;;;;;;;;;;10399685;28;20451;-68
2022/12/25 01:45:32;;;;;;;12.43;7.75;;;;;;;;;;10406798;28;20034;-68
2022/12/25 01:50:34;;;;;;;10.38;7.82;;;;;;;;;;10402816;28;20640;-66
2022/12/25 01:55:36;;;;;;;13.80;8.63;;;;;;;;;;10401770;28;20212;-67
2022/12/25 02:00:36;;;;;;;14.52;8.55;;;;;;;;;;10399944;28;20362;-61
2022/12/25 02:05:37;;;;;;;14.15;8.70;;;;;;;;;;10381456;28;20025;-61
2022/12/25 02:10:38;;;;;;;14.85;8.48;;;;;;;;;;10382679;28;20055;-68
2022/12/25 02:15:56;;;;;;;17.25;8.55;;;;;;;;;;10401213;28;20056;-69
2022/12/25 02:20:57;;;;;;;;;;;;;;;;;;10402329;28;20365;-73
2022/12/25 02:26:00;;;;;;;11.15;7.80;;;;;;;;;;10403414;28;19924;-72
2022/12/25 02:31:07;;;;;;;10.57;7.35;;;;;;;;;;10404203;28;20438;-70
2022/12/25 02:36:09;;;;;;;12.93;8.35;;;;;;;;;;10395881;28;20030;-72
2022/12/25 02:41:13;;;;;;;11.82;7.43;;;;;;;;;;10382742;28;20029;-67
2022/12/25 03:07:37;;;;;;;13.02;7.15;;;;;;;;;;10404046;28;20489;-62
2022/12/25 03:12:41;;;;;;;12.63;7.10;;;;;;;;;;10402704;28;20075;-71
2022/12/25 03:17:41;;;;;;;12.68;7.25;;;;;;;;;;10401184;28;20401;-72
2022/12/25 03:28:03;;;;;;;9.70;7.15;;;;;;;;;;10408407;28;20041;-65
2022/12/25 03:33:06;;;;;;;9.07;6.90;;;;;;;;;;10408250;28;20040;-66
2022/12/25 04:37:01;;;;;;;11.85;6.93;;;;;;;;;;10407614;28;20076;-62
2022/12/25 04:42:01;;;;;;;9.32;6.68;;;;;;;;;;10407756;28;20124;-59
2022/12/25 04:47:01;;;;;;;10.55;6.10;;;;;;;;;;10398085;28;20044;-62
2022/12/25 04:52:01;;;;;;;7.50;6.00;;;;;;;;;;10398687;28;20129;-64
2022/12/25 04:57:02;;;;;;;7.72;5.82;;;;;;;;;;10403785;28;20463;-67
2022/12/25 05:02:02;;;;;;;8.45;6.35;;;;;;;;;;10405987;28;20044;-67
2022/12/25 05:07:02;;;;;;;10.23;6.78;;;;;;;;;;10404830;28;20053;-65
2022/12/25 05:12:03;;;;;;;10.02;6.43;;;;;;;;;;10405853;28;20477;-70
2022/12/25 05:17:03;;;;;;;7.28;6.05;;;;;;;;;;10404581;28;20468;-70
2022/12/25 05:22:03;;;;;;;7.15;6.28;;;;;;;;;;10404004;28;20037;-66
2022/12/25 05:27:03;;;;;;;9.15;6.40;;;;;;;;;;10405271;28;20188;-66
2022/12/25 05:32:04;;;;;;;9.90;6.68;;;;;;;;;;10405552;28;20032;-67
2022/12/25 05:37:04;;;;;;;8.87;6.13;;;;;;;;;;10404737;28;20033;-67
2022/12/25 05:42:04;;;;;;;8.60;6.63;;;;;;;;;;10382981;28;20477;-68
2022/12/25 05:47:05;;;;;;;8.02;5.78;;;;;;;;;;10396628;28;20037;-65
2022/12/25 05:52:05;;;;;;;8.30;6.03;;;;;;;;;;10404854;28;20025;-61
2022/12/25 05:57:05;;;;;;;7.90;5.82;;;;;;;;;;10403291;28;20029;-62
2022/12/25 06:02:05;;;;;;;7.45;5.55;;;;;;;;;;10396872;28;20481;-61
2022/12/25 06:07:06;;;;;;;7.95;5.50;;;;;;;;;;10401238;28;20377;-60
2022/12/25 06:12:06;;;;;;;7.43;5.43;;;;;;;;;;10394162;28;20033;-61
2022/12/25 06:17:06;;;;;;;6.13;5.53;;;;;;;;;;10388380;28;20021;-60
2022/12/25 06:22:07;;;;;;;6.38;5.13;;;;;;;;;;10395557;28;21011;-61
2022/12/25 06:27:07;;;;;;;5.63;5.07;;;;;;;;;;10403227;28;20053;-61
2022/12/25 06:32:07;;;;;;;6.13;4.93;;;;;;;;;;10403671;28;20056;-60
2022/12/25 06:37:09;;;;;;;7.95;5.13;;;;;;;;;;10403755;28;20437;-61
2022/12/25 06:42:09;;;;;;;8.75;5.90;;;;;;;;;;10405598;28;20044;-60
2022/12/25 06:47:10;;;;;;;6.45;5.00;;;;;;;;;;10411905;28;20480;-61
2022/12/25 06:52:10;;;;;;;7.07;5.43;;;;;;;;;;10399321;28;20026;-66
2022/12/25 06:57:10;;;;;;;6.97;5.35;;;;;;;;;;10412656;28;20029;-59
2022/12/25 07:02:15;;;;;;;6.18;5.03;;;;;;;;;;10410985;28;20044;-60
2022/12/25 07:07:15;;;;;;;7.43;5.35;;;;;;;;;;10410008;28;20022;-60
2022/12/25 07:12:22;;;;;;;5.97;5.03;;;;;;;;;;10407588;28;20034;-62
2022/12/25 07:17:22;;;;;;;7.95;5.10;;;;;;;;;;10403759;28;20041;-61
2022/12/25 07:22:22;;;;;;;7.20;5.07;;;;;;;;;;10411382;28;20036;-60
2022/12/25 07:27:23;;;;;;;6.10;5.03;;;;;;;;;;10409611;28;20124;-60
2022/12/25 07:32:23;;;;;;;6.20;5.05;;;;;;;;;;10406425;28;20037;-60
2022/12/25 07:37:23;;;;;;;8.18;5.20;;;;;;;;;;10396852;28;20025;-62
2022/12/25 07:42:24;;;;;;;6.75;4.57;;;;;;;;;;10405082;28;20037;-62
2022/12/25 07:47:24;;;;;;;7.03;5.03;;;;;;;;;;10399201;28;20424;-62
2022/12/25 07:52:24;;;;;;;5.25;4.30;;;;;;;;;;10391520;28;20032;-62
2022/12/25 07:57:24;;;;;;;6.75;4.90;;;;;;;;;;10397184;28;20148;-67
2022/12/25 08:02:27;;;;;;;5.33;4.40;;;;;;;;;;10400915;28;20029;-60
2022/12/25 08:07:27;;;;;;;6.65;4.75;;;;;;;;;;10400443;28;20477;-65
2022/12/25 08:12:28;;;;;;;6.23;4.40;;;;;;;;;;10402959;28;20030;-60
2022/12/25 08:17:28;;;;;;;9.60;5.05;;;;;;;;;;10401427;28;20033;-64
2022/12/25 08:22:28;;;;;;;15.95;5.22;;;;;;;;;;10402268;28;20037;-60
2022/12/25 08:27:28;;;;;;;7.35;5.90;;;;;;;;;;10404445;28;20098;-61
2022/12/25 08:32:31;;;;;;;9.18;6.60;;;;;;;;;;10399515;28;20017;-61
2022/12/25 08:37:31;;;;;;;10.73;6.78;;;;;;;;;;10394331;28;20397;-60
2022/12/25 08:42:31;;;;;;;17.50;7.53;;;;;;;;;;10394222;28;20045;-61
2022/12/25 08:47:32;;;;;;;13.20;7.38;;;;;;;;;;10404146;28;20029;-61
2022/12/25 08:52:32;;;;;;;8.65;7.53;;;;;;;;;;10405404;28;20037;-61
2022/12/25 08:57:32;;;;;;;12.43;8.70;;;;;;;;;;10401659;28;20039;-61
2022/12/25 09:02:33;;;;;;;9.98;8.40;;;;;;;;;;10404990;28;20826;-61
2022/12/25 09:07:33;;;;;;;16.65;8.70;;;;;;;;;;10402274;28;20568;-61
2022/12/25 09:12:33;;;;;;;12.90;9.05;;;;;;;;;;10402955;28;20295;-61
2022/12/25 09:17:33;;;;;;;12.15;8.23;;;;;;;;;;10402364;28;20029;-61
2022/12/25 09:22:34;;;;;;;14.25;8.23;;;;;;;;;;10402221;28;20641;-61
2022/12/25 09:27:34;;;;;;;19.33;7.97;;;;;;;;;;10401148;28;20085;-61
2022/12/25 09:32:34;;;;;;;17.38;7.65;;;;;;;;;;10398678;28;20388;-61
2022/12/25 09:37:35;;;;;;;14.10;7.13;;;;;;;;;;10406361;28;20033;-61
2022/12/25 09:42:35;;;;;;;14.65;6.68;;;;;;;;;;10397746;28;20063;-61
2022/12/25 09:47:37;;;;;;;16.70;7.33;;;;;;;;;;10393152;28;20278;-60
2022/12/25 09:52:40;;;;;;;20.13;7.25;;;;;;;;;;10402657;28;20045;-61
2022/12/25 09:57:40;;;;;;;12.35;7.05;;;;;;;;;;10399727;28;20465;-60
2022/12/25 10:02:59;;;;;;;10.13;7.07;;;;;;;;;;10400133;28;20028;-61
2022/12/25 10:08:00;;;;;;;17.23;7.10;;;;;;;;;;10400795;28;20033;-60
2022/12/25 10:13:23;;;;;;;12.07;6.53;;;;;;;;;;10398210;28;20540;-61
2022/12/25 10:18:33;;;;;;;13.93;7.57;;;;;;;;;;10388432;28;20044;-61
2022/12/25 10:23:57;;;;;;;11.27;6.55;;;;;;;;;;10399588;28;20030;-61
2022/12/25 10:28:59;;;;;;;11.70;6.00;;;;;;;;;;10380940;28;20055;-61
2022/12/25 10:33:59;;;;;;;13.98;5.75;;;;;;;;;;10394674;28;20029;-61
2022/12/25 10:38:59;;;;;;;10.67;5.97;;;;;;;;;;10386559;28;20029;-61
2022/12/25 10:44:10;;;;;;;12.07;5.77;;;;;;;;;;10401446;28;20045;-61
2022/12/25 10:49:13;;;;;;;14.73;6.22;;;;;;;;;;10387260;28;21537;-61
2022/12/25 10:54:17;;;;;;;11.02;5.55;;;;;;;;;;10384822;28;20030;-61
2022/12/25 10:59:17;;;;;;;18.35;6.22;;;;;;;;;;10401206;28;20476;-61
2022/12/25 11:04:23;;;;;;;9.97;6.27;;;;;;;;;;10393244;28;20036;-61
2022/12/25 11:09:24;;;;;;;10.23;5.97;;;;;;;;;;10389818;28;20033;-62
2022/12/25 11:14:26;;;;;;;20.77;6.00;;;;;;;;;;10385845;28;20032;-62
2022/12/25 11:19:28;;;;;;;12.40;6.40;;;;;;;;;;10402306;28;20444;-61
2022/12/25 11:24:30;;;;;;;11.63;6.07;;;;;;;;;;10398911;28;20033;-60
2022/12/25 11:29:42;;;;;;;16.30;5.50;;;;;;;;;;10381738;28;20230;-60
2022/12/25 11:34:44;;;;;;;17.50;5.75;;;;;;;;;;10401520;28;20088;-64
2022/12/25 11:39:44;;;;;;;12.63;5.35;;;;;;;;;;10409222;28;20048;-64
2022/12/25 11:44:53;;;;;;;11.13;5.55;;;;;;;;;;10406991;28;20080;-62
2022/12/25 11:49:56;;;;;;;13.40;5.28;;;;;;;;;;10403396;28;20041;-65
2022/12/25 11:55:02;;;;;;;8.70;5.90;;;;;;;;;;10405460;28;20045;-71
2022/12/25 12:00:05;;;;;;;9.75;5.22;;;;;;;;;;10407153;28;20067;-69
2022/12/25 12:05:24;;;;;;;15.35;5.47;;;;;;;;;;10412636;28;20063;-71
2022/12/25 12:10:31;;;;;;;12.90;5.72;;;;;;;;;;10412110;28;20033;-68
2022/12/25 12:15:40;;;;;;;8.27;5.28;;;;;;;;;;10411282;28;20116;-71
2022/12/25 12:20:40;;;;;;;9.23;5.05;;;;;;;;;;10411544;28;20022;-70
2022/12/25 12:25:41;;;;;;;11.13;5.20;;;;;;;;;;10411274;28;20493;-71
2022/12/25 12:30:42;;;;;;;8.20;5.28;;;;;;;;;;10411662;28;20030;-69
2022/12/25 12:35:42;;;;;;;7.90;5.22;;;;;;;;;;10411317;28;20029;-70
2022/12/25 12:40:56;;;;;;;6.95;5.03;;;;;;;;;;10410582;28;20108;-70
2022/12/25 12:46:03;;;;;;;12.30;4.85;;;;;;;;;;10410438;28;20084;-71
2022/12/25 12:51:04;;;;;;;7.95;5.07;;;;;;;;;;10410760;28;20537;-72
2022/12/25 12:56:12;;;;;;;11.00;5.00;;;;;;;;;;10410222;28;20368;-71
2022/12/25 13:01:12;;;;;;;7.53;5.33;;;;;;;;;;10410613;28;20485;-72
2022/12/25 13:06:18;;;;;;;6.97;4.93;;;;;;;;;;10409689;28;20035;-72
2022/12/25 13:11:21;;;;;;;6.72;4.90;;;;;;;;;;10409223;28;20030;-72
2022/12/25 13:16:21;;;;;;;7.68;5.18;;;;;;;;;;10409217;28;20514;-72
2022/12/25 13:21:26;;;;;;;7.10;5.15;;;;;;;;;;10409082;28;20035;-72
2022/12/25 13:26:26;;;;;;;9.07;4.55;;;;;;;;;;10408740;28;20045;-68
2022/12/25 13:31:28;;;;;;;9.90;5.07;;;;;;;;;;10407723;28;20026;-67
2022/12/25 13:36:33;;;;;;;11.38;5.13;;;;;;;;;;10408665;28;20469;-66
2022/12/25 13:47:29;;;;;;;6.85;4.88;;;;;;;;;;10408699;28;20030;-67
2022/12/25 13:52:34;;;;;;;7.68;4.95;;;;;;;;;;10400930;28;20033;-67
2022/12/25 13:57:36;;;;;;;7.00;4.68;;;;;;;;;;10407308;28;20021;-66
2022/12/25 14:02:37;;;;;;;11.13;4.63;;;;;;;;;;10407679;28;20124;-66
2022/12/25 14:07:37;;;;;;;6.05;4.95;;;;;;;;;;10407985;28;20026;-67
2022/12/25 14:12:37;;;;;;;7.63;4.90;;;;;;;;;;10407592;28;20048;-67
2022/12/25 14:17:37;;;;;;;7.32;5.10;;;;;;;;;;10407340;28;20369;-66
2022/12/25 14:22:40;;;;;;;6.78;4.72;;;;;;;;;;10399998;28;20033;-65
2022/12/25 14:27:46;;;;;;;9.20;4.68;;;;;;;;;;10406131;28;20037;-65
2022/12/25 14:32:49;;;;;;;6.63;4.50;;;;;;;;;;10406999;28;20589;-67
2022/12/25 14:37:53;;;;;;;6.32;4.78;;;;;;;;;;10407548;28;20025;-67
2022/12/25 14:42:58;;;;;;;6.43;4.75;;;;;;;;;;10407330;28;20028;-66
2022/12/25 14:48:01;;;;;;;6.88;4.28;;;;;;;;;;10405454;28;20029;-65
2022/12/25 14:53:02;;;;;;;6.22;4.80;;;;;;;;;;10406277;28;20034;-70
2022/12/25 14:58:04;;;;;;;6.13;4.68;;;;;;;;;;10396496;28;20042;-69
2022/12/25 15:03:18;;;;;;;6.57;4.50;;;;;;;;;;10399321;28;20061;-65
2022/12/25 15:08:20;;;;;;;24.90;5.00;;;;;;;;;;10409684;28;20025;-69
2022/12/25 15:13:20;;;;;;;13.45;4.90;;;;;;;;;;10406027;28;20061;-68
2022/12/25 15:18:21;;;;;;;10.10;4.70;;;;;;;;;;10408106;28;20132;-68
2022/12/25 15:23:21;;;;;;;7.15;4.30;;;;;;;;;;10405501;28;20084;-65
2022/12/25 15:28:22;;;;;;;14.93;4.70;;;;;;;;;;10403649;28;20049;-65
2022/12/25 15:33:22;;;;;;;11.13;4.63;;;;;;;;;;10411920;28;20458;-65
2022/12/25 15:38:23;;;;;;;10.18;4.70;;;;;;;;;;10412311;28;20094;-64
2022/12/25 15:43:23;;;;;;;16.25;5.22;;;;;;;;;;10405697;28;20026;-65
2022/12/25 15:48:23;;;;;;;7.13;4.22;;;;;;;;;;10403560;28;20033;-65
2022/12/25 15:53:25;;;;;;;14.30;4.70;;;;;;;;;;10411985;28;20152;-65
2022/12/25 15:58:26;;;;;;;17.38;4.85;;;;;;;;;;10412460;28;20041;-65
2022/12/25 16:03:26;;;;;;;9.15;4.45;;;;;;;;;;10412299;28;20052;-65
2022/12/25 16:08:26;;;;;;;9.45;4.38;;;;;;;;;;10411987;28;20032;-65
2022/12/25 16:13:26;;;;;;;8.85;4.10;;;;;;;;;;10411200;28;20032;-65
2022/12/25 16:18:28;;;;;;;8.30;4.55;;;;;;;;;;10411690;28;20125;-65
2022/12/25 16:23:29;;;;;;;9.52;4.13;;;;;;;;;;10411835;28;20036;-65
2022/12/25 16:28:30;;;;;;;8.38;4.28;;;;;;;;;;10411169;28;20100;-65
2022/12/25 16:33:30;;;;;;;10.77;4.85;;;;;;;;;;10411243;28;20072;-64
2022/12/25 16:38:30;;;;;;;7.10;3.58;;;;;;;;;;10411349;28;20029;-65
2022/12/25 16:43:31;;;;;;;11.02;4.53;;;;;;;;;;10411132;28;20029;-65
2022/12/25 16:48:31;;;;;;;10.63;4.03;;;;;;;;;;10410814;28;20024;-65
2022/12/25 16:53:31;;;;;;;8.70;4.28;;;;;;;;;;10410558;28;20036;-65
2022/12/25 16:58:31;;;;;;;10.20;4.17;;;;;;;;;;10410335;28;20036;-65
2022/12/25 17:03:32;;;;;;;5.47;3.88;;;;;;;;;;10410537;28;20033;-64
2022/12/25 17:08:32;;;;;;;5.05;3.70;;;;;;;;;;10410053;28;20087;-64
2022/12/25 17:13:33;;;;;;;10.18;4.53;;;;;;;;;;10409917;28;20397;-64
2022/12/25 17:18:33;;;;;;;4.70;3.83;;;;;;;;;;10409510;28;20473;-64
2022/12/25 17:23:34;;;;;;;4.95;3.65;;;;;;;;;;10408798;28;20252;-64
2022/12/25 17:28:35;;;;;;;4.93;3.92;;;;;;;;;;10409009;28;20038;-64
2022/12/25 17:33:35;;;;;;;7.47;4.10;;;;;;;;;;10408828;28;20028;-64
2022/12/25 17:38:36;;;;;;;6.60;3.80;;;;;;;;;;10409142;28;20111;-64
2022/12/25 17:43:39;;;;;;;5.45;4.00;;;;;;;;;;10408644;28;20029;-64
2022/12/25 17:48:39;;;;;;;10.98;4.13;;;;;;;;;;10408347;28;20017;-65
2022/12/25 17:53:40;;;;;;;4.38;3.60;;;;;;;;;;10408372;28;20369;-65
2022/12/25 17:58:41;;;;;;;5.20;3.95;;;;;;;;;;10408009;28;20029;-64
2022/12/25 18:03:42;;;;;;;5.95;3.90;;;;;;;;;;10407949;28;20029;-65
2022/12/25 18:08:43;;;;;;;10.13;4.43;;;;;;;;;;10408101;28;20044;-65
2022/12/25 18:13:46;;;;;;;4.82;3.95;;;;;;;;;;10408047;28;20505;-64
2022/12/25 18:18:46;;;;;;;6.35;4.25;;;;;;;;;;10407782;28;20227;-64
2022/12/25 18:23:47;;;;;;;6.45;3.90;;;;;;;;;;10407252;28;20197;-64
2022/12/25 18:28:48;;;;;;;5.07;3.70;;;;;;;;;;10407347;28;20125;-64
2022/12/25 18:33:48;;;;;;;7.00;4.00;;;;;;;;;;10407897;28;20439;-64
2022/12/25 18:38:49;;;;;;;7.10;4.45;;;;;;;;;;10411310;28;20057;-64
2022/12/25 18:43:49;;;;;;;5.78;3.85;;;;;;;;;;10415838;28;20088;-64
2022/12/25 18:48:50;;;;;;;6.85;4.68;;;;;;;;;;10415520;28;20075;-64
2022/12/25 18:53:50;;;;;;;5.47;3.80;;;;;;;;;;10415221;28;20080;-64
2022/12/25 18:58:50;;;;;;;5.50;4.22;;;;;;;;;;10414873;28;20393;-64
2022/12/25 19:03:51;;;;;;;4.65;3.72;;;;;;;;;;10415067;28;20029;-64
2022/12/25 19:08:52;;;;;;;6.32;3.90;;;;;;;;;;10414292;28;20029;-64
2022/12/25 19:13:52;;;;;;;4.78;4.22;;;;;;;;;;10413846;28;20056;-64
2022/12/25 19:18:53;;;;;;;5.90;4.25;;;;;;;;;;10414454;28;20430;-64
2022/12/25 19:23:53;;;;;;;5.65;4.22;;;;;;;;;;10414032;28;20033;-64
2022/12/25 19:28:54;;;;;;;4.75;4.20;;;;;;;;;;10413397;28;20073;-64
2022/12/25 19:33:54;;;;;;;6.18;4.53;;;;;;;;;;10413541;28;20028;-64
2022/12/25 19:38:54;;;;;;;4.75;4.07;;;;;;;;;;10413626;28;20025;-64
2022/12/25 19:43:54;;;;;;;7.83;4.40;;;;;;;;;;10413089;28;20064;-64
2022/12/25 19:48:55;;;;;;;4.45;3.50;;;;;;;;;;10412194;28;20454;-64
2022/12/25 19:53:55;;;;;;;5.13;3.80;;;;;;;;;;10412952;28;20047;-64
2022/12/25 19:58:56;;;;;;;4.60;3.92;;;;;;;;;;10412485;28;20261;-64
2022/12/25 20:03:56;;;;;;;6.85;3.97;;;;;;;;;;10412656;28;20029;-64
2022/12/25 20:08:58;;;;;;;5.88;4.10;;;;;;;;;;10412275;28;20472;-64
2022/12/25 20:13:58;;;;;;;8.82;3.65;;;;;;;;;;10411836;28;20034;-64
2022/12/25 20:18:58;;;;;;;4.47;3.88;;;;;;;;;;10411850;28;20023;-64
2022/12/25 20:23:59;;;;;;;5.15;4.00;;;;;;;;;;10411223;28;20082;-64
2022/12/25 20:28:59;;;;;;;4.40;3.80;;;;;;;;;;10411435;28;20044;-64
2022/12/25 20:34:02;;;;;;;8.30;4.23;;;;;;;;;;10411389;28;20108;-64
2022/12/25 20:39:03;;;;;;;6.43;4.53;;;;;;;;;;10411011;28;20060;-64
2022/12/25 20:44:05;;;;;;;6.25;4.00;;;;;;;;;;10410545;28;20117;-64
2022/12/25 20:49:05;;;;;;;5.50;3.85;;;;;;;;;;10410801;28;20136;-63
2022/12/25 20:54:07;;;;;;;4.93;3.85;;;;;;;;;;10410322;28;20097;-64
2022/12/25 20:59:08;;;;;;;6.10;4.75;;;;;;;;;;10409692;28;20401;-64
2022/12/25 21:04:09;;;;;;;4.38;3.85;;;;;;;;;;10409384;28;20040;-63
2022/12/25 21:09:09;;;;;;;4.93;3.92;;;;;;;;;;10409809;28;20030;-64
2022/12/25 21:14:09;;;;;;;4.93;4.07;;;;;;;;;;10409917;28;20071;-64
2022/12/25 21:19:10;;;;;;;5.40;4.22;;;;;;;;;;10401477;28;20025;-64
2022/12/25 21:24:10;;;;;;;7.43;4.17;;;;;;;;;;10409094;28;20025;-64
2022/12/25 21:29:10;;;;;;;5.90;4.03;;;;;;;;;;10408542;28;20091;-64
2022/12/25 21:34:10;;;;;;;7.25;4.13;;;;;;;;;;10409241;28;20451;-64
2022/12/25 21:39:11;;;;;;;6.37;3.93;;;;;;;;;;10407223;28;20385;-64
2022/12/25 21:44:11;;;;;;;4.83;4.23;;;;;;;;;;10408941;28;20084;-64
2022/12/25 21:52:05;;;;;;;5.43;4.10;;;;;;;;;;10408405;28;20158;-64
2022/12/25 21:54:32;;;;;;;4.32;3.85;;;;;;;;;;10408016;28;20596;-64
2022/12/25 21:59:32;;;;;;;4.53;4.07;;;;;;;;;;10406944;28;20275;-64
2022/12/25 22:04:33;;;;;;;6.82;3.80;;;;;;;;;;10407827;28;20075;-64
2022/12/25 22:09:33;;;;;;;6.03;3.97;;;;;;;;;;10407696;28;20060;-64
2022/12/25 22:14:49;;;;;;;4.20;3.40;;;;;;;;;;10406532;28;20029;-63
2022/12/25 22:19:49;;;;;;;7.03;4.18;;;;;;;;;;10407712;28;20021;-64
2022/12/25 22:24:50;;;;;;;4.57;3.78;;;;;;;;;;10407201;28;20435;-63
2022/12/25 22:29:51;;;;;;;5.68;3.38;;;;;;;;;;10397580;28;20042;-64
2022/12/25 22:34:51;;;;;;;4.73;3.77;;;;;;;;;;10406990;28;20025;-64
2022/12/25 22:39:51;;;;;;;5.90;3.90;;;;;;;;;;10407353;28;20537;-63
2022/12/25 22:44:51;;;;;;;5.23;3.83;;;;;;;;;;10406768;28;20033;-64
2022/12/25 22:49:52;;;;;;;5.15;4.10;;;;;;;;;;10406881;28;20028;-63
2022/12/25 22:54:52;;;;;;;5.07;4.00;;;;;;;;;;10406759;28;20021;-63
2022/12/25 22:59:52;;;;;;;5.38;3.90;;;;;;;;;;10407014;28;20017;-64
2022/12/25 23:04:53;;;;;;;4.93;3.85;;;;;;;;;;10406702;28;20033;-64
2022/12/25 23:09:53;;;;;;;6.38;3.80;;;;;;;;;;10406948;28;20013;-64
2022/12/25 23:14:53;;;;;;;4.07;3.60;;;;;;;;;;10394724;28;20521;-64
2022/12/25 23:30:37;;;;;;;5.18;3.95;;;;;;;;;;10414196;28;20053;-64
2022/12/25 23:35:38;;;;;;;5.55;3.80;;;;;;;;;;10413852;28;20033;-64
2022/12/25 23:40:38;;;;;;;4.38;3.47;;;;;;;;;;10413742;28;20029;-64
2022/12/25 23:45:38;;;;;;;4.18;3.78;;;;;;;;;;10412758;28;20388;-64
2022/12/25 23:50:38;;;;;;;5.10;3.85;;;;;;;;;;10412934;28;20024;-64
2022/12/25 23:55:41;;;;;;;5.18;4.05;;;;;;;;;;10412662;28;20033;-64
